Time;durP1;ratioP1;P1;durP2;ratioP2;P2;SDS_P1;SDS_P2;PMS_P1;PMS_P2;Temp;Humidity;BMP_temperature;BMP_pressure;BME280_temperature;BME280_humidity;BME280_pressure;Samples;Min_cycle;Max_cycle;Signal;HPM_P1;HPM_P2
2022/03/29 00:00:38;;;;;;;24.30;17.50;;;6.70;99.90;;;;;;4995692;28;20048;-69
2022/03/29 00:03:04;;;;;;;22.70;18.00;;;6.70;99.90;;;;;;5000472;28;20067;-68
2022/03/29 00:05:30;;;;;;;21.50;16.65;;;6.70;99.90;;;;;;4997112;28;20137;-68
2022/03/29 00:07:56;;;;;;;21.10;17.58;;;6.70;99.90;;;;;;4996117;28;20042;-68
2022/03/29 00:10:21;;;;;;;23.10;18.13;;;6.70;99.90;;;;;;5026532;28;20046;-69
2022/03/29 00:12:50;;;;;;;24.10;18.38;;;6.70;99.90;;;;;;5031457;28;20142;-68
2022/03/29 00:15:16;;;;;;;22.25;18.17;;;6.70;99.90;;;;;;5029250;28;20056;-68
2022/03/29 00:17:41;;;;;;;24.13;17.67;;;6.70;99.90;;;;;;5000668;28;20393;-70
2022/03/29 00:20:08;;;;;;;23.25;17.98;;;6.70;99.90;;;;;;4997543;28;20303;-70
2022/03/29 00:22:34;;;;;;;20.17;17.27;;;6.70;99.90;;;;;;5032342;28;20053;-70
2022/03/29 00:25:00;;;;;;;23.80;17.45;;;6.80;99.90;;;;;;5030067;28;20046;-70
2022/03/29 00:27:26;;;;;;;22.95;17.00;;;6.80;99.90;;;;;;4996293;28;20060;-70
2022/03/29 00:29:51;;;;;;;18.63;16.40;;;6.80;99.90;;;;;;4996959;28;20458;-70
2022/03/29 00:32:17;;;;;;;22.77;17.65;;;6.70;99.90;;;;;;4997617;28;20461;-70
2022/03/29 00:34:43;;;;;;;22.85;17.17;;;6.80;99.90;;;;;;4995518;28;20414;-69
2022/03/29 00:37:09;;;;;;;20.23;17.45;;;6.80;99.90;;;;;;5029760;28;20041;-69
2022/03/29 00:39:35;;;;;;;23.13;17.10;;;6.70;99.90;;;;;;4998108;28;20038;-69
2022/03/29 00:42:01;;;;;;;23.52;18.25;;;6.70;99.90;;;;;;4994176;28;20044;-69
2022/03/29 00:44:35;;;;;;;23.10;17.42;;;6.80;99.90;;;;;;4999146;28;20033;-69
2022/03/29 00:47:02;;;;;;;19.40;16.30;;;6.70;99.90;;;;;;5026238;28;20117;-69
2022/03/29 00:49:28;;;;;;;19.77;17.67;;;6.70;99.90;;;;;;5028276;28;20180;-69
2022/03/29 00:51:57;;;;;;;21.58;19.00;;;6.70;99.90;;;;;;5023975;28;20058;-70
2022/03/29 00:54:24;;;;;;;23.02;20.10;;;6.70;99.90;;;;;;4998291;28;20100;-69
2022/03/29 00:56:50;;;;;;;21.75;19.02;;;6.70;99.90;;;;;;4982244;28;20042;-69
2022/03/29 00:59:17;;;;;;;23.38;19.95;;;6.60;99.90;;;;;;4995193;28;20454;-69
2022/03/29 01:01:42;;;;;;;22.00;19.17;;;6.60;99.90;;;;;;5025538;28;20124;-69
2022/03/29 01:04:08;;;;;;;24.20;21.70;;;6.60;99.90;;;;;;5029718;28;20049;-69
2022/03/29 01:06:37;;;;;;;25.67;22.02;;;6.60;99.90;;;;;;4995615;28;20132;-69
2022/03/29 01:09:03;;;;;;;24.40;19.92;;;6.50;99.90;;;;;;5028314;28;20098;-69
2022/03/29 01:11:29;;;;;;;24.40;21.40;;;6.60;99.90;;;;;;4995834;28;20035;-69
2022/03/29 01:13:55;;;;;;;24.73;22.13;;;6.60;99.90;;;;;;4997993;28;20038;-69
2022/03/29 01:19:09;;;;;;;23.58;20.48;;;6.50;99.90;;;;;;4996489;28;20048;-69
2022/03/29 01:21:38;;;;;;;25.23;20.67;;;6.40;99.90;;;;;;4995710;28;20117;-70
2022/03/29 01:24:05;;;;;;;25.33;20.98;;;6.40;99.90;;;;;;5032328;28;20069;-70
2022/03/29 01:26:31;;;;;;;26.38;22.58;;;6.40;99.90;;;;;;4995980;28;20058;-69
2022/03/29 01:28:57;;;;;;;26.35;20.73;;;6.40;99.90;;;;;;5025888;28;20046;-69
2022/03/29 01:31:25;;;;;;;26.10;21.85;;;6.40;99.90;;;;;;4995841;28;20030;-69
2022/03/29 01:33:51;;;;;;;23.75;20.67;;;6.40;99.90;;;;;;5024058;28;20039;-69
2022/03/29 01:36:17;;;;;;;24.98;21.42;;;6.40;99.90;;;;;;4995001;28;20129;-69
2022/03/29 01:38:42;;;;;;;27.20;20.95;;;6.40;99.90;;;;;;5009224;28;20820;-69
2022/03/29 01:41:10;;;;;;;24.75;20.95;;;6.40;99.90;;;;;;5025977;28;20038;-69
2022/03/29 01:43:36;;;;;;;23.95;21.33;;;6.40;99.90;;;;;;5010410;28;20497;-69
2022/03/29 01:46:02;;;;;;;23.45;20.85;;;6.40;99.90;;;;;;4994371;28;20038;-70
2022/03/29 01:48:28;;;;;;;27.25;21.40;;;6.40;99.90;;;;;;4993726;28;20042;-69
2022/03/29 01:50:53;;;;;;;25.27;19.77;;;6.40;99.90;;;;;;4995051;28;20065;-69
2022/03/29 01:53:27;;;;;;;24.33;19.23;;;6.30;99.90;;;;;;5026442;28;20378;-69
2022/03/29 01:55:55;;;;;;;24.05;19.63;;;6.30;99.90;;;;;;4994690;28;20053;-69
2022/03/29 01:58:22;;;;;;;25.60;19.73;;;6.40;99.90;;;;;;4982136;28;20069;-69
2022/03/29 02:00:47;;;;;;;23.40;19.15;;;6.30;99.90;;;;;;5026291;28;20050;-69
2022/03/29 02:03:13;;;;;;;23.67;18.90;;;6.30;99.90;;;;;;4995198;28;20042;-69
2022/03/29 02:05:39;;;;;;;25.63;19.90;;;6.30;99.90;;;;;;4994502;28;20041;-69
2022/03/29 02:08:04;;;;;;;25.08;19.27;;;6.30;99.90;;;;;;4997719;28;20038;-69
2022/03/29 02:10:30;;;;;;;23.13;19.05;;;6.40;99.90;;;;;;5029058;28;20081;-69
2022/03/29 02:12:56;;;;;;;23.33;18.50;;;6.40;99.90;;;;;;4995405;28;20393;-68
2022/03/29 02:15:22;;;;;;;24.77;18.35;;;6.40;99.90;;;;;;5009613;28;20046;-69
2022/03/29 02:17:51;;;;;;;26.20;19.45;;;6.40;99.90;;;;;;4998925;28;20060;-69
2022/03/29 02:20:19;;;;;;;25.63;19.45;;;6.40;99.90;;;;;;5025693;28;20045;-69
2022/03/29 02:22:45;;;;;;;23.98;19.50;;;6.40;99.90;;;;;;4998563;28;20060;-69
2022/03/29 02:25:12;;;;;;;22.48;18.77;;;6.40;99.90;;;;;;5027313;28;20045;-69
2022/03/29 02:27:43;;;;;;;23.65;19.23;;;6.40;99.90;;;;;;4995845;28;20137;-69
2022/03/29 02:30:12;;;;;;;24.08;18.10;;;6.50;99.90;;;;;;4993320;28;20046;-69
2022/03/29 02:32:38;;;;;;;24.08;19.20;;;6.40;99.90;;;;;;4994434;28;20042;-70
2022/03/29 02:35:04;;;;;;;23.67;19.80;;;6.50;99.90;;;;;;4996538;28;20080;-70
2022/03/29 02:37:30;;;;;;;22.52;19.00;;;6.40;99.90;;;;;;5026213;28;20046;-70
2022/03/29 02:39:56;;;;;;;20.98;18.70;;;6.40;99.90;;;;;;4994979;28;20107;-70
2022/03/29 02:42:22;;;;;;;24.55;19.48;;;6.50;99.90;;;;;;4994277;28;20041;-70
2022/03/29 02:44:47;;;;;;;26.95;20.50;;;6.50;99.90;;;;;;4990476;28;20050;-70
2022/03/29 02:47:13;;;;;;;25.40;20.05;;;6.60;99.90;;;;;;4996748;28;20137;-70
2022/03/29 02:49:39;;;;;;;26.80;20.70;;;6.50;99.90;;;;;;5008691;28;20042;-70
2022/03/29 02:52:05;;;;;;;26.58;21.08;;;6.50;99.90;;;;;;4995114;28;20507;-70
2022/03/29 02:54:31;;;;;;;25.05;20.13;;;6.50;99.90;;;;;;4999594;28;20092;-70
2022/03/29 02:56:56;;;;;;;29.60;20.63;;;6.50;99.90;;;;;;5027498;28;20046;-70
2022/03/29 02:59:22;;;;;;;29.00;22.55;;;6.50;99.90;;;;;;4995649;28;20045;-70
2022/03/29 03:01:48;;;;;;;25.75;19.92;;;6.50;99.90;;;;;;5022736;28;20125;-70
2022/03/29 03:04:14;;;;;;;27.80;21.73;;;6.50;99.90;;;;;;5029266;28;20782;-70
2022/03/29 03:06:41;;;;;;;27.58;21.05;;;6.50;99.90;;;;;;4996558;28;20049;-70
2022/03/29 03:09:07;;;;;;;28.38;21.65;;;6.60;99.90;;;;;;4997303;28;20492;-69
2022/03/29 03:11:35;;;;;;;28.52;22.67;;;6.60;99.90;;;;;;4996463;28;20053;-69
2022/03/29 03:14:01;;;;;;;26.50;21.08;;;6.60;99.90;;;;;;4981227;28;20540;-69
2022/03/29 03:16:27;;;;;;;28.92;22.25;;;6.60;99.90;;;;;;5027524;28;20558;-69
2022/03/29 03:18:52;;;;;;;26.52;21.83;;;6.60;99.90;;;;;;5025174;28;20038;-69
2022/03/29 03:21:18;;;;;;;29.08;21.92;;;6.60;99.90;;;;;;5028506;28;20490;-69
2022/03/29 03:23:44;;;;;;;26.35;19.67;;;6.60;99.90;;;;;;4979968;28;20050;-69
2022/03/29 03:26:09;;;;;;;25.90;22.23;;;6.60;99.90;;;;;;5011571;28;20094;-69
2022/03/29 03:28:35;;;;;;;26.40;20.63;;;6.60;99.90;;;;;;4993730;28;20033;-69
2022/03/29 03:31:01;;;;;;;27.75;21.33;;;6.60;99.90;;;;;;4992823;28;20073;-69
2022/03/29 03:33:26;;;;;;;26.73;21.75;;;6.60;99.90;;;;;;5021078;28;20166;-69
2022/03/29 03:35:52;;;;;;;26.58;21.20;;;6.60;99.90;;;;;;4995027;28;20043;-69
2022/03/29 03:38:19;;;;;;;27.77;21.33;;;6.60;99.90;;;;;;4993544;28;20077;-69
2022/03/29 03:40:44;;;;;;;25.58;20.98;;;6.50;99.90;;;;;;5000812;28;20520;-70
2022/03/29 03:43:10;;;;;;;27.20;21.42;;;6.60;99.90;;;;;;4995284;28;20030;-70
2022/03/29 03:45:36;;;;;;;28.10;20.42;;;6.60;99.90;;;;;;4998213;28;20045;-70
2022/03/29 03:48:03;;;;;;;27.77;21.90;;;6.60;99.90;;;;;;5029603;28;20545;-70
2022/03/29 03:50:29;;;;;;;24.45;20.58;;;6.60;99.90;;;;;;4979698;28;20056;-70
2022/03/29 03:52:54;;;;;;;31.55;22.25;;;6.60;99.90;;;;;;5033602;28;20046;-70
2022/03/29 03:55:21;;;;;;;25.15;20.30;;;6.70;99.90;;;;;;5002025;28;20038;-70
2022/03/29 03:57:48;;;;;;;25.50;21.10;;;6.60;99.90;;;;;;5002954;28;20694;-69
2022/03/29 04:00:14;;;;;;;24.88;20.92;;;6.70;99.90;;;;;;5000398;28;20033;-69
2022/03/29 04:02:41;;;;;;;29.05;21.83;;;6.60;99.90;;;;;;4995801;28;20540;-70
2022/03/29 04:05:08;;;;;;;24.83;20.33;;;6.70;99.90;;;;;;5026972;28;20046;-70
2022/03/29 04:07:34;;;;;;;26.20;21.08;;;6.60;99.90;;;;;;5001669;28;20034;-70
2022/03/29 04:10:00;;;;;;;28.17;21.77;;;6.70;99.90;;;;;;5000135;28;20084;-70
2022/03/29 04:12:27;;;;;;;25.50;21.27;;;6.70;99.90;;;;;;5004433;28;20033;-69
2022/03/29 04:14:54;;;;;;;30.17;22.42;;;6.70;99.90;;;;;;4996921;28;20054;-69
2022/03/29 04:17:20;;;;;;;30.55;22.58;;;6.70;99.90;;;;;;4994910;28;20041;-69
2022/03/29 04:19:46;;;;;;;26.63;21.63;;;6.70;99.90;;;;;;4995375;28;20134;-70
2022/03/29 04:22:12;;;;;;;30.30;21.35;;;6.70;99.90;;;;;;5028215;28;20072;-70
2022/03/29 04:24:37;;;;;;;32.08;22.88;;;6.70;99.90;;;;;;4997677;28;20446;-70
2022/03/29 04:27:04;;;;;;;28.33;22.05;;;6.70;99.90;;;;;;5014539;28;20049;-70
2022/03/29 04:29:30;;;;;;;27.27;21.65;;;6.70;99.90;;;;;;4996582;28;20037;-70
2022/03/29 04:31:55;;;;;;;30.88;22.15;;;6.70;99.90;;;;;;4979520;28;20049;-70
2022/03/29 04:34:21;;;;;;;28.83;22.70;;;6.70;99.90;;;;;;5026141;28;20145;-69
2022/03/29 04:36:47;;;;;;;27.85;21.48;;;6.70;99.90;;;;;;5006819;28;20482;-69
2022/03/29 04:39:12;;;;;;;28.30;22.27;;;6.70;99.90;;;;;;5005879;28;20034;-70
2022/03/29 04:41:39;;;;;;;28.02;21.35;;;6.70;99.90;;;;;;4997470;28;20034;-70
2022/03/29 04:44:05;;;;;;;29.65;22.48;;;6.70;99.90;;;;;;5032683;28;20050;-69
2022/03/29 04:46:31;;;;;;;26.55;22.08;;;6.70;99.90;;;;;;5000276;28;20414;-69
2022/03/29 04:48:57;;;;;;;29.80;21.45;;;6.70;99.90;;;;;;4999820;28;20047;-69
2022/03/29 04:51:23;;;;;;;27.95;22.42;;;6.70;99.90;;;;;;5026639;28;20054;-70
2022/03/29 04:53:49;;;;;;;27.92;21.48;;;6.70;99.90;;;;;;4998214;28;20057;-70
2022/03/29 04:56:15;;;;;;;30.60;21.58;;;6.70;99.90;;;;;;5029814;28;20397;-70
2022/03/29 04:58:41;;;;;;;26.50;22.38;;;6.70;99.90;;;;;;5031777;28;20649;-70
2022/03/29 05:01:06;;;;;;;30.33;21.02;;;6.70;99.90;;;;;;4996033;28;20045;-70
2022/03/29 05:03:32;;;;;;;30.40;22.30;;;6.70;99.90;;;;;;5003695;28;20041;-70
2022/03/29 05:05:58;;;;;;;29.70;22.75;;;6.80;99.90;;;;;;4998340;28;20486;-70
2022/03/29 05:08:24;;;;;;;28.92;21.13;;;6.80;99.90;;;;;;4999820;28;20131;-70
2022/03/29 05:10:49;;;;;;;26.35;21.20;;;6.70;99.90;;;;;;5000009;28;20078;-70
2022/03/29 05:13:18;;;;;;;32.17;22.00;;;6.70;99.90;;;;;;5001109;28;20044;-70
2022/03/29 05:15:44;;;;;;;31.65;22.38;;;6.80;99.90;;;;;;5034021;28;20458;-70
2022/03/29 05:18:10;;;;;;;28.80;22.13;;;6.80;99.90;;;;;;4999208;28;20101;-70
2022/03/29 05:20:36;;;;;;;29.58;21.40;;;6.70;99.90;;;;;;5004959;28;20117;-70
2022/03/29 05:23:06;;;;;;;30.63;22.92;;;6.70;99.90;;;;;;5000009;28;20042;-70
2022/03/29 05:25:35;;;;;;;29.17;21.55;;;6.70;99.90;;;;;;5039332;28;20482;-70
2022/03/29 05:28:01;;;;;;;27.52;21.08;;;6.70;99.90;;;;;;4999067;28;20421;-70
2022/03/29 05:30:27;;;;;;;27.13;21.60;;;6.70;99.90;;;;;;5003830;28;20033;-70
2022/03/29 05:33:00;;;;;;;32.55;21.48;;;6.70;99.90;;;;;;4976851;28;20096;-70
2022/03/29 05:35:29;;;;;;;28.55;21.33;;;6.80;99.90;;;;;;4998580;28;20054;-69
2022/03/29 05:37:57;;;;;;;29.30;22.05;;;6.70;99.90;;;;;;4987157;28;20065;-69
2022/03/29 05:40:24;;;;;;;33.38;22.27;;;6.70;99.90;;;;;;5028911;28;20439;-69
2022/03/29 05:42:51;;;;;;;28.38;21.92;;;6.70;99.90;;;;;;5002019;28;20069;-69
2022/03/29 05:45:17;;;;;;;32.08;22.02;;;6.80;99.90;;;;;;4981043;28;20046;-69
2022/03/29 05:50:27;;;;;;;32.72;21.38;;;6.80;99.90;;;;;;4995321;28;20842;-69
2022/03/29 05:52:54;;;;;;;32.38;21.65;;;6.80;99.90;;;;;;5027171;28;20129;-68
2022/03/29 05:55:20;;;;;;;31.60;22.83;;;6.80;99.90;;;;;;5003385;28;20477;-69
2022/03/29 05:57:49;;;;;;;31.90;22.27;;;6.80;99.90;;;;;;5015835;28;20103;-69
2022/03/29 06:00:23;;;;;;;33.03;23.35;;;6.70;99.90;;;;;;5001798;28;20046;-69
2022/03/29 06:02:49;;;;;;;30.33;22.98;;;6.80;99.90;;;;;;4999773;28;20046;-70
2022/03/29 06:05:15;;;;;;;34.85;23.08;;;6.80;99.90;;;;;;5031055;28;20038;-70
2022/03/29 06:07:41;;;;;;;31.23;22.27;;;6.80;99.90;;;;;;5032255;28;20389;-70
2022/03/29 06:10:07;;;;;;;38.45;24.52;;;6.80;99.90;;;;;;5002010;28;20494;-70
2022/03/29 06:12:34;;;;;;;31.33;22.90;;;6.80;99.90;;;;;;5003101;28;20397;-70
2022/03/29 06:15:04;;;;;;;30.67;22.67;;;6.80;99.90;;;;;;5034174;28;20042;-69
2022/03/29 06:17:30;;;;;;;34.53;23.30;;;6.80;99.90;;;;;;5000000;28;20378;-70
2022/03/29 06:19:56;;;;;;;30.95;22.30;;;6.80;99.90;;;;;;4996110;28;20390;-70
2022/03/29 06:22:22;;;;;;;35.90;24.67;;;6.80;99.90;;;;;;5034184;28;20030;-70
2022/03/29 06:24:48;;;;;;;35.22;23.98;;;6.80;99.90;;;;;;5000008;28;20062;-70
2022/03/29 06:27:14;;;;;;;32.55;24.00;;;6.80;99.90;;;;;;5032181;28;20069;-69
2022/03/29 06:29:40;;;;;;;37.22;23.98;;;6.80;99.90;;;;;;5029560;28;20127;-69
2022/03/29 06:32:06;;;;;;;35.38;24.70;;;6.80;99.90;;;;;;5004375;28;20048;-69
2022/03/29 06:34:32;;;;;;;37.88;24.83;;;6.90;99.90;;;;;;4994172;28;20047;-68
2022/03/29 06:36:58;;;;;;;36.22;24.63;;;6.90;99.90;;;;;;5032561;28;20095;-69
2022/03/29 06:39:25;;;;;;;35.97;23.65;;;6.90;99.90;;;;;;4993905;28;20121;-69
2022/03/29 06:41:50;;;;;;;35.88;23.20;;;7.00;99.90;;;;;;4996621;28;20056;-69
2022/03/29 06:44:17;;;;;;;33.85;23.80;;;7.00;99.90;;;;;;5028751;28;20429;-69
2022/03/29 06:46:43;;;;;;;37.88;24.35;;;7.10;99.90;;;;;;5013066;28;20057;-69
2022/03/29 06:49:09;;;;;;;37.30;23.85;;;7.10;99.90;;;;;;4999324;28;20046;-69
2022/03/29 06:51:35;;;;;;;37.63;24.23;;;7.10;99.90;;;;;;4996436;28;20108;-70
2022/03/29 06:54:03;;;;;;;34.22;23.15;;;7.10;99.90;;;;;;4999773;28;20054;-70
2022/03/29 06:56:30;;;;;;;40.05;24.10;;;7.10;99.90;;;;;;4981762;28;20588;-69
2022/03/29 06:58:56;;;;;;;33.65;23.75;;;7.10;99.90;;;;;;5034811;28;20092;-70
2022/03/29 07:01:22;;;;;;;35.67;23.40;;;7.10;99.90;;;;;;5030450;28;20042;-70
2022/03/29 07:03:48;;;;;;;35.13;23.75;;;7.10;99.90;;;;;;4989793;28;20423;-70
2022/03/29 07:06:14;;;;;;;32.90;23.40;;;7.20;99.90;;;;;;5031592;28;20050;-69
2022/03/29 07:11:16;;;;;;;36.03;23.45;;;7.30;99.90;;;;;;4999890;28;20043;-69
2022/03/29 07:11:25;;;;;;;36.55;23.52;;;7.30;99.90;;;;;;4996549;28;20091;-69
2022/03/29 07:13:51;;;;;;;34.95;22.95;;;7.40;99.90;;;;;;5000323;28;20073;-69
2022/03/29 07:16:17;;;;;;;33.80;23.33;;;7.50;99.90;;;;;;4997161;28;20509;-67
2022/03/29 07:18:43;;;;;;;33.28;21.58;;;7.50;99.90;;;;;;5003970;28;20482;-70
2022/03/29 07:21:10;;;;;;;33.72;22.10;;;7.50;99.90;;;;;;4999753;28;20588;-69
2022/03/29 07:23:37;;;;;;;65.43;34.58;;;7.60;99.90;;;;;;4998076;28;20121;-70
2022/03/29 07:26:03;;;;;;;37.72;25.33;;;7.70;99.90;;;;;;4987945;28;20522;-73
2022/03/29 07:28:28;;;;;;;52.28;25.90;;;7.80;99.90;;;;;;5036638;28;20112;-70
2022/03/29 07:30:54;;;;;;;35.15;21.88;;;7.90;99.90;;;;;;4999066;28;20421;-69
2022/03/29 07:33:20;;;;;;;36.00;23.05;;;8.00;99.90;;;;;;5004133;28;20393;-68
2022/03/29 07:35:47;;;;;;;34.58;21.80;;;8.00;99.90;;;;;;4999389;28;20117;-69
2022/03/29 07:38:13;;;;;;;286.30;53.13;;;8.10;99.90;;;;;;5002779;28;20046;-67
2022/03/29 07:40:40;;;;;;;44.85;27.17;;;8.10;99.90;;;;;;4999778;28;20051;-68
2022/03/29 07:43:08;;;;;;;46.85;27.10;;;8.20;99.90;;;;;;5037667;28;20038;-69
2022/03/29 07:45:34;;;;;;;54.65;30.23;;;8.40;99.90;;;;;;5003947;28;20046;-72
2022/03/29 07:48:03;;;;;;;38.67;26.20;;;8.50;99.90;;;;;;5034555;28;20034;-67
2022/03/29 07:50:31;;;;;;;35.58;25.70;;;8.50;99.90;;;;;;5035408;28;20125;-67
2022/03/29 07:52:59;;;;;;;40.88;26.10;;;8.50;99.90;;;;;;5002229;28;20047;-67
2022/03/29 07:55:25;;;;;;;38.72;24.35;;;8.60;99.90;;;;;;5005113;28;20080;-69
2022/03/29 07:57:51;;;;;;;70.85;34.47;;;8.60;99.90;;;;;;5001390;28;20034;-70
2022/03/29 08:00:32;;;;;;;46.50;28.20;;;8.60;99.90;;;;;;5037090;28;20053;-69
2022/03/29 08:03:10;;;;;;;39.20;26.77;;;8.60;99.90;;;;;;5035583;28;20431;-70
2022/03/29 08:05:37;;;;;;;40.05;24.20;;;8.60;99.90;;;;;;5041355;28;20450;-69
2022/03/29 08:08:04;;;;;;;36.42;25.27;;;8.50;99.90;;;;;;5004537;28;20048;-69
2022/03/29 08:10:31;;;;;;;33.05;25.02;;;8.40;99.90;;;;;;5006118;28;20046;-69
2022/03/29 08:13:02;;;;;;;42.63;26.90;;;8.50;99.90;;;;;;4999268;28;20057;-69
2022/03/29 08:15:29;;;;;;;35.67;25.77;;;8.60;99.90;;;;;;5002334;28;20057;-68
2022/03/29 08:17:56;;;;;;;36.85;26.08;;;8.60;99.90;;;;;;5033145;28;20054;-70
2022/03/29 08:20:22;;;;;;;33.15;25.73;;;8.60;99.90;;;;;;5037137;28;20513;-71
2022/03/29 08:22:48;;;;;;;47.40;28.95;;;8.60;99.90;;;;;;4998867;28;20057;-70
2022/03/29 08:25:15;;;;;;;49.83;26.85;;;8.70;99.90;;;;;;4989085;28;20496;-70
2022/03/29 08:27:42;;;;;;;36.47;24.58;;;8.80;99.90;;;;;;5002252;28;20402;-70
2022/03/29 08:30:09;;;;;;;52.55;31.88;;;8.90;99.90;;;;;;5000454;28;20045;-69
2022/03/29 08:32:36;;;;;;;38.38;24.02;;;9.00;99.90;;;;;;5034840;28;20297;-70
2022/03/29 08:35:03;;;;;;;38.83;25.27;;;9.00;99.90;;;;;;4999726;28;20160;-69
2022/03/29 08:37:29;;;;;;;37.70;23.02;;;9.00;99.90;;;;;;5006611;28;20038;-69
2022/03/29 08:39:55;;;;;;;38.03;23.23;;;9.00;99.90;;;;;;5000725;28;20049;-70
2022/03/29 08:42:23;;;;;;;40.13;24.23;;;9.10;99.90;;;;;;5004081;28;20047;-67
2022/03/29 08:44:49;;;;;;;44.97;26.30;;;9.20;99.90;;;;;;5003029;28;20081;-66
2022/03/29 08:47:15;;;;;;;42.40;24.23;;;9.20;99.90;;;;;;5003847;28;20092;-68
2022/03/29 08:49:44;;;;;;;39.85;23.63;;;9.30;99.90;;;;;;5002827;28;20402;-67
2022/03/29 08:52:11;;;;;;;33.78;22.13;;;9.30;99.90;;;;;;5004331;28;20500;-65
2022/03/29 08:54:37;;;;;;;36.45;22.75;;;9.20;99.90;;;;;;5000756;28;20084;-65
2022/03/29 08:57:03;;;;;;;31.27;21.38;;;9.10;99.90;;;;;;5003516;28;20498;-65
2022/03/29 08:59:29;;;;;;;34.03;22.08;;;9.20;99.90;;;;;;5029911;28;20144;-65
2022/03/29 09:02:07;;;;;;;33.92;22.65;;;9.20;99.90;;;;;;4999144;28;20121;-66
2022/03/29 09:04:33;;;;;;;33.60;21.70;;;9.30;99.90;;;;;;4997968;28;20113;-66
2022/03/29 09:07:03;;;;;;;32.97;21.42;;;9.40;99.90;;;;;;5001834;28;20120;-66
2022/03/29 09:09:40;;;;;;;32.85;21.13;;;9.50;99.90;;;;;;5005238;28;20069;-67
2022/03/29 09:12:16;;;;;;;32.90;21.50;;;9.70;99.90;;;;;;5030428;28;20045;-67
2022/03/29 09:14:55;;;;;;;33.35;21.33;;;10.00;99.90;;;;;;4998854;28;20034;-67
2022/03/29 09:17:33;;;;;;;31.58;19.85;;;10.20;99.90;;;;;;4998239;28;20100;-66
2022/03/29 09:20:00;;;;;;;35.75;20.15;;;10.40;99.90;;;;;;4994749;28;20057;-66
2022/03/29 09:22:42;;;;;;;34.47;19.75;;;10.40;99.90;;;;;;5000156;28;20230;-67
2022/03/29 09:25:21;;;;;;;29.92;20.08;;;10.50;99.90;;;;;;4998562;28;20049;-66
2022/03/29 09:27:51;;;;;;;36.65;20.60;;;10.30;99.90;;;;;;5030170;28;20042;-66
2022/03/29 09:30:17;;;;;;;30.85;18.92;;;10.30;99.90;;;;;;5000439;28;20038;-67
2022/03/29 09:33:00;;;;;;;33.60;19.73;;;10.30;99.90;;;;;;5034975;28;20383;-66
2022/03/29 09:35:27;;;;;;;35.33;19.67;;;10.30;99.10;;;;;;5001719;28;20775;-67
2022/03/29 09:37:53;;;;;;;30.38;18.38;;;10.30;99.90;;;;;;5005415;28;20117;-67
2022/03/29 09:40:19;;;;;;;34.67;20.13;;;10.20;99.00;;;;;;5003092;28;20124;-65
2022/03/29 09:43:07;;;;;;;32.03;18.38;;;10.40;99.90;;;;;;5002368;28;20160;-66
2022/03/29 09:45:48;;;;;;;36.45;19.52;;;10.40;97.80;;;;;;5001365;28;20120;-66
2022/03/29 09:48:32;;;;;;;29.83;19.55;;;10.50;99.00;;;;;;5033224;28;20049;-66
2022/03/29 09:51:15;;;;;;;119.60;42.47;;;10.50;99.10;;;;;;5002372;28;20129;-66
2022/03/29 09:53:53;;;;;;;30.75;19.38;;;10.50;97.60;;;;;;5005705;28;20538;-66
2022/03/29 09:56:26;;;;;;;28.85;20.20;;;10.50;97.40;;;;;;4997156;28;20050;-65
2022/03/29 09:59:09;;;;;;;29.33;19.80;;;10.50;98.20;;;;;;5003593;28;20125;-65
2022/03/29 10:01:47;;;;;;;30.75;20.02;;;10.70;97.70;;;;;;4994149;28;20042;-65
2022/03/29 10:04:15;;;;;;;37.20;20.98;;;10.70;96.50;;;;;;5000566;28;20133;-66
2022/03/29 10:06:42;;;;;;;30.95;20.02;;;10.50;97.50;;;;;;5040211;28;20120;-66
2022/03/29 10:09:27;;;;;;;46.38;26.50;;;10.50;98.30;;;;;;4994950;28;20419;-66
2022/03/29 10:11:59;;;;;;;63.28;31.15;;;10.60;98.20;;;;;;4998114;28;20450;-66
2022/03/29 10:14:26;;;;;;;111.70;39.33;;;10.60;98.50;;;;;;4996066;28;20105;-66
2022/03/29 10:16:53;;;;;;;96.88;42.20;;;10.50;99.90;;;;;;5002416;28;20073;-66
2022/03/29 10:19:21;;;;;;;33.80;21.25;;;10.50;99.90;;;;;;5030390;28;20085;-65
2022/03/29 10:21:47;;;;;;;62.03;29.92;;;10.40;99.90;;;;;;4998034;28;20172;-65
2022/03/29 10:24:14;;;;;;;33.00;21.55;;;10.50;99.70;;;;;;5033738;28;20538;-66
2022/03/29 10:26:46;;;;;;;32.60;20.17;;;10.50;99.90;;;;;;4997675;28;20043;-64
2022/03/29 10:29:12;;;;;;;33.30;20.52;;;10.60;99.90;;;;;;5006338;28;20168;-64
2022/03/29 10:31:49;;;;;;;30.00;20.95;;;10.60;99.00;;;;;;5034386;28;20062;-64
2022/03/29 10:34:25;;;;;;;30.73;19.65;;;10.70;98.20;;;;;;5004709;28;20038;-65
2022/03/29 10:37:07;;;;;;;30.77;19.63;;;10.90;98.20;;;;;;5005208;28;20042;-65
2022/03/29 10:39:44;;;;;;;26.70;19.27;;;11.70;97.60;;;;;;5004502;28;20409;-65
2022/03/29 10:42:37;;;;;;;24.98;19.02;;;12.40;95.20;;;;;;5000803;28;20050;-65
2022/03/29 10:45:06;;;;;;;27.77;19.63;;;12.60;92.90;;;;;;4999064;28;20057;-65
2022/03/29 10:47:33;;;;;;;25.25;17.98;;;12.70;94.90;;;;;;4998958;28;20128;-65
2022/03/29 10:50:00;;;;;;;28.30;18.92;;;13.00;93.40;;;;;;5003529;28;20054;-65
2022/03/29 10:52:25;;;;;;;24.50;18.88;;;13.20;92.90;;;;;;5009557;28;20613;-65
2022/03/29 10:54:53;;;;;;;30.52;18.80;;;13.40;91.90;;;;;;5010393;28;20050;-65
2022/03/29 10:57:25;;;;;;;29.15;20.42;;;13.30;91.70;;;;;;5004713;28;20234;-65
2022/03/29 10:59:58;;;;;;;33.38;21.73;;;13.50;91.10;;;;;;5006374;28;20041;-66
2022/03/29 11:02:25;;;;;;;45.77;24.83;;;14.00;91.40;;;;;;5005930;28;20052;-65
2022/03/29 11:05:12;;;;;;;56.45;28.67;;;14.70;90.80;;;;;;5038548;28;20050;-67
2022/03/29 11:07:52;;;;;;;53.38;23.23;;;14.80;81.90;;;;;;5033282;28;20064;-67
2022/03/29 11:10:20;;;;;;;77.05;35.60;;;14.10;87.80;;;;;;5002346;28;20247;-68
2022/03/29 11:12:53;;;;;;;26.45;17.92;;;14.00;90.70;;;;;;5008535;28;20037;-67
2022/03/29 11:15:25;;;;;;;24.90;17.52;;;14.20;85.70;;;;;;5006925;28;20133;-67
2022/03/29 11:17:52;;;;;;;26.38;17.98;;;14.30;84.40;;;;;;5007782;28;20394;-65
2022/03/29 11:20:42;;;;;;;21.20;16.33;;;14.10;83.80;;;;;;5010723;28;20049;-66
2022/03/29 11:23:11;;;;;;;22.25;16.92;;;14.40;79.30;;;;;;5031347;28;20054;-68
2022/03/29 11:25:45;;;;;;;24.13;17.25;;;14.70;79.50;;;;;;5004572;28;20437;-68
2022/03/29 11:28:12;;;;;;;;;;;15.00;80.10;;;;;;5002171;28;20129;-68
2022/03/29 11:30:38;;;;;;;25.70;17.23;;;15.30;75.30;;;;;;5004566;28;19918;-68
2022/03/29 11:33:06;;;;;;;24.48;17.92;;;15.40;76.30;;;;;;5003814;28;20033;-69
2022/03/29 11:35:33;;;;;;;20.98;16.75;;;15.80;78.80;;;;;;5020734;28;20466;-68
2022/03/29 11:38:11;;;;;;;23.98;16.52;;;15.60;72.40;;;;;;5006037;28;20451;-73
2022/03/29 11:40:38;;;;;;;21.75;16.80;;;15.50;71.00;;;;;;4999491;28;20172;-69
2022/03/29 11:43:06;;;;;;;21.27;16.77;;;15.10;72.30;;;;;;5000188;28;20116;-69
2022/03/29 11:45:44;;;;;;;23.65;16.85;;;14.70;74.50;;;;;;5000212;28;20113;-69
2022/03/29 11:48:12;;;;;;;22.10;17.27;;;15.00;74.10;;;;;;5000223;28;20132;-69
2022/03/29 11:50:52;;;;;;;20.35;15.77;;;15.40;72.40;;;;;;5004835;28;20081;-69
2022/03/29 11:53:27;;;;;;;25.20;15.88;;;15.90;70.60;;;;;;4997327;28;20136;-69
2022/03/29 11:56:06;;;;;;;25.20;16.85;;;16.10;70.70;;;;;;4998596;28;20121;-69
2022/03/29 11:58:43;;;;;;;21.52;16.02;;;16.30;70.10;;;;;;5039494;28;20057;-69
2022/03/29 12:01:25;;;;;;;24.10;17.48;;;16.40;67.60;;;;;;4998031;28;20042;-69
2022/03/29 12:04:03;;;;;;;23.67;16.45;;;16.70;68.10;;;;;;4998750;28;20045;-70
2022/03/29 12:06:44;;;;;;;21.23;16.92;;;16.40;67.20;;;;;;5000864;28;20038;-70
2022/03/29 12:09:12;;;;;;;22.52;17.23;;;16.30;67.70;;;;;;4994975;28;20272;-69
2022/03/29 12:11:39;;;;;;;23.05;15.93;;;16.10;68.80;;;;;;5019664;28;20065;-69
2022/03/29 12:14:08;;;;;;;24.23;15.85;;;16.40;67.10;;;;;;5001899;28;20050;-69
2022/03/29 12:16:39;;;;;;;21.85;14.90;;;15.80;65.90;;;;;;5031190;28;20133;-69
2022/03/29 12:19:31;;;;;;;21.17;15.95;;;15.10;66.90;;;;;;5001557;28;20124;-69
2022/03/29 12:22:03;;;;;;;23.52;16.05;;;14.50;67.90;;;;;;5005959;28;20081;-69
2022/03/29 12:24:37;;;;;;;21.13;14.88;;;14.70;69.60;;;;;;5032580;28;20065;-69
2022/03/29 12:27:06;;;;;;;21.23;15.18;;;15.00;68.40;;;;;;5004683;28;20046;-72
2022/03/29 12:29:34;;;;;;;24.08;15.75;;;14.90;69.30;;;;;;5014952;28;20046;-72
2022/03/29 12:32:02;;;;;;;23.23;15.32;;;14.90;68.80;;;;;;5035754;28;20137;-72
2022/03/29 12:34:30;;;;;;;20.35;14.88;;;14.70;70.30;;;;;;5036497;28;20057;-72
2022/03/29 12:36:58;;;;;;;22.35;15.20;;;14.30;70.50;;;;;;5036842;28;20040;-72
2022/03/29 12:39:31;;;;;;;21.98;13.80;;;13.90;70.90;;;;;;5034719;28;20080;-72
2022/03/29 12:41:56;;;;;;;28.52;14.55;;;13.60;71.40;;;;;;5000634;28;20046;-72
2022/03/29 12:44:42;;;;;;;22.13;14.32;;;13.40;71.20;;;;;;5036073;28;20081;-72